Doddtown, New Jersey
Current Conditions -  °F | °C
As of 4:51 PM on Sunday 23 Nov 2014 (Local Time) from KEWR Reporting Station
Broken Clouds Broken Clouds  
Wind Chill: 54°   Ceiling: 20000
Heat Index: 54°   Visibility: 10mi
Dew Point: 27°   Wind: 3mph
Humidity: 35%   Direction: 110°ESE
Pressure: 30.13"   Gusts: NA
Location:  40.7716°N, 74.2073°W
Report Text: KEWR 232151Z 11003KT 10SM FEW100 BKN200 BKN250 12/M03 A3013 RMK AO2 SLP201 T01221028
Loading
Personal Weather Stations






























Interactive Weather Map New forecast layout! Learn more

10-Day Weather Forecast

Advertisements
Track Severe Weather on mobile